KFHU/FHU METAR and TAF weather

Enter ICAO airport designator
Station Type Date Time Source
KFHU METAR 2020/03/31 09:58 UTC NOAA

KFHU 310958Z AUTO 21005KT 10SM SCT220 08/M04 A3019 RMK AO2 SLP184 T00761043


Station Type Date Time Source
KFHU Decoded METAR 2020/03/31 09:58 UTC NOAA

Fort Huachuca, Libby AAF Ft Huachuca, AZ, United States (KFHU) 46-98N 110-20W
Mar 31, 2020 - 05:58 AM EDT / 2020.03.31 0958 UTC
Wind: from the SSW (210 degrees) at 6 MPH (5 KT):0
Visibility: 10 mile(s):0
Sky conditions: partly cloudy
Temperature: 45.7 F (7.6 C)
Dew Point: 24.3 F (-4.3 C)
Relative Humidity: 42%
Pressure (altimeter): 30.19 in. Hg (1022 hPa)
ob: KFHU 310958Z AUTO 21005KT 10SM SCT220 08/M04 A3019 RMK AO2 SLP184 T00761043
cycle: 10

Station Type Date Time Source
KFHU TAF 2020/03/31 10:09 UTC NOAA

TAF KFHU 311005Z 3110/0116 VRB06KT 9999 FEW230 QNH3015INS
BECMG 3114/3115 VRB06KT 9999 SCT230 QNH2997INS
TEMPO 3122/0103 23010G15KT
BECMG 0103/0104 24009KT 9999 BKN120 QNH2991INS
BECMG 0114/0115 22012G20KT 9999 BKN070 QNH2995INS TX23/3122Z TN05/3113Z

Example: see airport list